MRIT2: Lake Meredith

                                SHEF ID:       MRIT2     Lake Meredith
STATION TYPE: RESERVOIR
Flood Pool: Bottom = 2941.30, Top = 2965.00

PRECIP ELEVATION STORAGE INFLOW RELEASE WIND-DIRWIND-SPEED
in ft ac-ft cfs cfs deg mph
Ccp-Rev Ccp-Rev Ccp-Rev Rev-Regi Rev-Regi Ccp-Rev Ccp-Rev
(America/Chicago)
07/18 00:00 ---- 2892.47 268838 33 0 153.00 6.00
07/18 01:00 ---- 2892.52 269237 74 0 272.00 15.00
07/18 02:00 ---- 2892.44 268599 115 0 285.00 9.00
07/18 03:00 ---- 2892.47 268838 99 0 159.00 3.00
07/18 04:00 ---- 2892.45 268679 83 0 153.00 5.00
07/18 05:00 ---- 2892.44 268599 304 0 114.00 7.00
07/18 06:00 ---- 2892.45 268679 263 0 17.00 1.00
07/18 07:00 ---- 2892.47 268838 222 0 198.00 5.00
07/18 08:00 ---- 2892.46 268758 277 0 ---- ----
07/18 09:00 ---- 2892.47 268838 318 0 ---- ----
07/18 10:00 ---- 2892.50 269076 97 0 ---- ----
07/18 11:00 ---- 2892.48 268917 97 0 ---- ----
07/18 12:00 ---- 2892.48 268917 97 0 ---- ----
07/18 13:00 ---- 2892.49 268997 41 0 ---- ----
07/18 14:00 ---- 2892.49 268997 0 0 ---- ----
07/18 15:00 ---- 2892.49 268997 0 0 ---- ----
07/18 16:00 ---- 2892.49 268997 0 0 ---- ----
07/18 17:00 ---- 2892.48 268917 0 0 ---- ----
07/18 18:00 ---- 2892.49 268997 0 0 ---- ----
07/18 19:00 ---- 2892.47 268838 0 0 ---- ----
07/18 20:00 ---- 2892.45 268679 0 0 ---- ----
07/18 21:00 ---- 2892.44 268599 0 0 ---- ----
07/18 22:00 ---- 2892.46 268758 0 0 ---- ----
07/18 23:00 ---- ---- ---- ---- ---- ---- ----
Data processed at Sat 19Jul2025 04:43 GMT

Parsing this webpage?

Checkout our new Data API! CWMSDataAPI (CDA)

Timeseries IDs (TSIDs)

TSIDs used from left to right in the data table
MERE.Precip-Inc.Total.1Hour.1Hour.Ccp-Rev
MERE.Elev.Inst.1Hour.0.Ccp-Rev
MERE.Stor.Inst.1Hour.0.Ccp-Rev
MERE.Flow-Res In.Ave.1Hour.1Hour.Rev-Regi-Computed
MERE.Flow-Res Out.Ave.1Hour.1Hour.Rev-Regi-Flowgroup
MERE.Dir-Wind.Inst.1Hour.0.Ccp-Rev
MERE.Speed-Wind.Inst.1Hour.0.Ccp-Rev

                            

All information presented herein is the property of the government of the United States of America and may be revised or deleted at any time without prior notice. Dissemination of this information without the expressed written consent of the Public Affairs Office, Tulsa District U.S. Army Corps of Engineers is strictly prohibited. These data are gathered electronically and, as presented, have NOT undergone any form of quality control. These data are NOT guaranteed to be valid or correct.